createdAt,value
2019-02-28T00:00:21.990Z,14.90
2019-02-28T00:01:21.986Z,14.10
2019-02-28T00:02:22.680Z,13.90
2019-02-28T00:03:21.977Z,13.30
2019-02-28T00:04:21.973Z,13.10
2019-02-28T00:05:21.967Z,14.60
2019-02-28T00:06:21.972Z,15.40
2019-02-28T00:07:21.957Z,13.50
2019-02-28T00:08:21.952Z,14.40
2019-02-28T00:09:21.948Z,13.90
2019-02-28T00:10:21.942Z,12.40
2019-02-28T00:11:21.937Z,12.90
2019-02-28T00:12:21.933Z,11.70
2019-02-28T00:13:22.545Z,12.20
2019-02-28T00:14:21.923Z,11.50
2019-02-28T00:15:21.917Z,12.70
2019-02-28T00:16:21.913Z,11.80
2019-02-28T00:17:21.907Z,10.30
2019-02-28T00:18:21.903Z,12.10
2019-02-28T00:19:23.938Z,13.20
2019-02-28T00:20:21.892Z,13.20
2019-02-28T00:21:21.890Z,11.40
2019-02-28T00:22:21.883Z,12.50
2019-02-28T00:23:22.011Z,12.90
2019-02-28T00:24:21.872Z,12.90
2019-02-28T00:25:21.867Z,11.90
2019-02-28T00:26:21.861Z,14.40
2019-02-28T00:27:22.176Z,14.20
2019-02-28T00:28:23.132Z,13.50
2019-02-28T00:29:21.847Z,13.80
2019-02-28T00:30:21.844Z,13.90
2019-02-28T00:31:21.837Z,14.00
2019-02-28T00:32:24.776Z,13.40
2019-02-28T00:33:21.829Z,13.90
2019-02-28T00:34:21.820Z,13.60
2019-02-28T00:35:21.814Z,14.30
2019-02-28T00:36:21.810Z,13.80
2019-02-28T00:37:24.704Z,13.50
2019-02-28T00:38:21.800Z,15.60
2019-02-28T00:39:21.794Z,14.70
2019-02-28T00:40:21.789Z,14.70
2019-02-28T00:41:21.785Z,13.50
2019-02-28T00:42:21.778Z,14.60
2019-02-28T00:43:22.246Z,14.80
2019-02-28T00:44:21.769Z,15.50
2019-02-28T00:45:21.766Z,15.80
2019-02-28T00:46:21.758Z,16.60
2019-02-28T00:47:21.750Z,16.30
2019-02-28T00:48:22.319Z,15.50
2019-02-28T00:49:24.548Z,16.10
2019-02-28T00:50:21.737Z,15.30
2019-02-28T00:51:21.731Z,15.10
2019-02-28T00:52:21.725Z,17.30
2019-02-28T00:53:21.720Z,16.00
2019-02-28T00:54:21.715Z,14.00
2019-02-28T00:55:21.711Z,14.90
2019-02-28T00:56:21.704Z,16.50
2019-02-28T00:57:23.627Z,13.90
2019-02-28T00:58:21.694Z,14.10
2019-02-28T00:59:21.689Z,14.70
2019-02-28T01:00:21.683Z,14.30
2019-02-28T01:01:21.679Z,14.20
2019-02-28T01:02:21.673Z,13.90
2019-02-28T01:03:26.504Z,14.80
2019-02-28T01:04:21.661Z,14.20
2019-02-28T01:05:21.659Z,13.00
2019-02-28T01:06:21.650Z,13.90
2019-02-28T01:07:21.646Z,15.10
2019-02-28T01:08:22.123Z,15.20
2019-02-28T01:09:21.633Z,14.70
2019-02-28T01:10:21.629Z,15.10
2019-02-28T01:11:21.624Z,14.10
2019-02-28T01:12:21.617Z,12.60
2019-02-28T01:13:21.612Z,11.10
2019-02-28T01:14:21.611Z,12.90
2019-02-28T01:15:21.601Z,11.80
2019-02-28T01:16:21.596Z,11.20
2019-02-28T01:17:24.065Z,11.70
2019-02-28T01:18:21.584Z,12.30
2019-02-28T01:19:21.578Z,11.80
2019-02-28T01:20:21.573Z,12.20
2019-02-28T01:21:23.940Z,12.30
2019-02-28T01:22:21.563Z,13.90
2019-02-28T01:23:21.557Z,11.80
2019-02-28T01:24:21.551Z,12.90
2019-02-28T01:25:21.545Z,13.30
2019-02-28T01:26:21.540Z,13.70
2019-02-28T01:27:21.842Z,13.30
2019-02-28T01:28:23.472Z,13.30
2019-02-28T01:29:21.524Z,12.80
2019-02-28T01:30:21.517Z,14.80
2019-02-28T01:31:21.511Z,14.90
2019-02-28T01:32:21.508Z,15.10
2019-02-28T01:33:24.556Z,13.70
2019-02-28T01:34:21.496Z,13.40
2019-02-28T01:35:21.488Z,14.00
2019-02-28T01:36:21.482Z,13.00
2019-02-28T01:37:21.967Z,14.30
2019-02-28T01:38:23.880Z,18.00
2019-02-28T01:39:21.467Z,16.30
2019-02-28T01:40:21.458Z,14.10
2019-02-28T01:41:21.453Z,15.20
2019-02-28T01:42:21.447Z,16.80
2019-02-28T01:43:21.441Z,18.00
2019-02-28T01:44:21.439Z,17.50
2019-02-28T01:45:21.429Z,15.70
2019-02-28T01:46:21.422Z,20.00
2019-02-28T01:47:21.419Z,19.10
2019-02-28T01:48:22.671Z,16.80
2019-02-28T01:49:21.406Z,17.50
2019-02-28T01:50:21.401Z,16.90
2019-02-28T01:51:21.394Z,20.10
2019-02-28T01:52:21.402Z,21.40
2019-02-28T01:53:21.394Z,21.70
2019-02-28T01:54:21.384Z,19.70
2019-02-28T01:55:21.370Z,20.40
2019-02-28T01:56:21.365Z,18.00
2019-02-28T01:57:21.358Z,18.90
2019-02-28T01:58:21.354Z,17.90
2019-02-28T01:59:22.222Z,18.60
2019-02-28T02:00:23.816Z,20.10
2019-02-28T02:01:21.335Z,18.60
2019-02-28T02:02:21.330Z,19.20
2019-02-28T02:03:21.325Z,19.60
2019-02-28T02:04:21.317Z,18.00
2019-02-28T02:05:21.311Z,20.20
2019-02-28T02:06:22.596Z,21.30
2019-02-28T02:07:21.298Z,20.90
2019-02-28T02:08:21.294Z,21.40
2019-02-28T02:09:21.288Z,18.10
2019-02-28T02:10:21.711Z,18.90
2019-02-28T02:11:21.276Z,18.30
2019-02-28T02:12:21.268Z,20.00
2019-02-28T02:13:21.265Z,21.40
2019-02-28T02:14:21.258Z,21.30
2019-02-28T02:15:21.251Z,20.70
2019-02-28T02:16:26.853Z,19.60
2019-02-28T02:17:21.239Z,18.90
2019-02-28T02:18:21.233Z,19.60
2019-02-28T02:19:21.227Z,21.40
2019-02-28T02:20:23.414Z,24.20
2019-02-28T02:21:21.215Z,23.20
2019-02-28T02:22:21.210Z,22.80
2019-02-28T02:23:21.202Z,22.30
2019-02-28T02:24:21.198Z,23.50
2019-02-28T02:25:21.192Z,23.70
2019-02-28T02:26:21.185Z,23.10
2019-02-28T02:27:21.179Z,22.60
2019-02-28T02:28:21.173Z,22.30
2019-02-28T02:29:21.168Z,23.00
2019-02-28T02:30:21.161Z,23.60
2019-02-28T02:31:27.612Z,22.10
2019-02-28T02:32:21.161Z,22.20
2019-02-28T02:33:21.185Z,22.40
2019-02-28T02:34:24.264Z,21.70
2019-02-28T02:35:21.134Z,22.70
2019-02-28T02:36:21.126Z,23.10
2019-02-28T02:37:21.155Z,23.20
2019-02-28T02:38:21.121Z,23.60
2019-02-28T02:39:21.110Z,22.30
2019-02-28T02:40:22.996Z,22.50
2019-02-28T02:41:21.097Z,23.60
2019-02-28T02:42:21.091Z,22.60
2019-02-28T02:43:21.893Z,22.80
2019-02-28T02:44:21.078Z,22.30
2019-02-28T02:45:21.073Z,21.80
2019-02-28T02:46:21.426Z,22.80
2019-02-28T02:47:21.060Z,23.60
2019-02-28T02:48:21.056Z,23.80
2019-02-28T02:49:21.049Z,22.90
2019-02-28T02:50:21.045Z,24.00
2019-02-28T02:51:21.047Z,21.50
2019-02-28T02:52:25.894Z,23.80
2019-02-28T02:53:21.026Z,22.10
2019-02-28T02:54:21.022Z,22.30
2019-02-28T02:55:27.558Z,21.80
2019-02-28T02:56:21.009Z,22.00
2019-02-28T02:57:21.003Z,24.00
2019-02-28T02:58:26.692Z,21.90
2019-02-28T02:59:20.989Z,23.90
2019-02-28T03:00:20.988Z,21.40
2019-02-28T03:01:23.110Z,22.00
2019-02-28T03:02:20.972Z,23.30
2019-02-28T03:03:20.968Z,22.60
2019-02-28T03:04:23.010Z,23.20
2019-02-28T03:05:20.956Z,20.30
2019-02-28T03:06:20.964Z,24.20
2019-02-28T03:07:24.572Z,22.50
2019-02-28T03:08:20.937Z,24.00
2019-02-28T03:09:20.931Z,23.70
2019-02-28T03:10:20.925Z,23.00
2019-02-28T03:11:24.872Z,22.30
2019-02-28T03:12:20.932Z,22.60
2019-02-28T03:13:20.908Z,22.20
2019-02-28T03:14:20.903Z,21.50
2019-02-28T03:15:26.893Z,22.90
2019-02-28T03:16:20.891Z,22.10
2019-02-28T03:17:20.887Z,23.30
2019-02-28T03:18:21.795Z,22.60
2019-02-28T03:19:20.879Z,23.00
2019-02-28T03:20:20.866Z,23.20
2019-02-28T03:21:20.861Z,22.60
2019-02-28T03:22:28.349Z,22.40
2019-02-28T03:23:20.849Z,22.40
2019-02-28T03:24:20.842Z,22.40
2019-02-28T03:25:27.438Z,21.80
2019-02-28T03:26:20.831Z,21.90
2019-02-28T03:27:20.825Z,23.60
2019-02-28T03:28:20.820Z,22.60
2019-02-28T03:29:20.813Z,25.00
2019-02-28T03:30:28.339Z,23.50
2019-02-28T03:31:20.807Z,20.20
2019-02-28T03:32:20.797Z,19.40
2019-02-28T03:33:27.237Z,20.10
2019-02-28T03:34:20.784Z,21.30
2019-02-28T03:35:20.835Z,21.00
2019-02-28T03:36:20.772Z,20.10
2019-02-28T03:37:20.766Z,22.00
2019-02-28T03:38:20.770Z,19.20
2019-02-28T03:39:24.075Z,21.30
2019-02-28T03:40:20.750Z,21.30
2019-02-28T03:41:20.742Z,20.60
2019-02-28T03:42:20.741Z,20.00
2019-02-28T03:43:20.730Z,19.90
2019-02-28T03:44:21.876Z,20.40
2019-02-28T03:45:20.727Z,20.20
2019-02-28T03:46:20.726Z,19.90
2019-02-28T03:47:23.929Z,19.60
2019-02-28T03:48:20.698Z,21.60
2019-02-28T03:49:20.693Z,21.70
2019-02-28T03:50:21.859Z,21.20
2019-02-28T03:51:20.691Z,21.00
2019-02-28T03:52:20.674Z,21.30
2019-02-28T03:53:21.143Z,23.30
2019-02-28T03:54:20.663Z,24.00
2019-02-28T03:55:20.655Z,23.60
2019-02-28T03:56:20.650Z,21.60
2019-02-28T03:57:27.957Z,24.20
2019-02-28T03:58:20.639Z,22.20
2019-02-28T03:59:20.632Z,23.20
2019-02-28T04:00:20.626Z,23.80
2019-02-28T04:01:20.621Z,21.80
2019-02-28T04:02:22.233Z,22.60
2019-02-28T04:03:20.607Z,22.50
2019-02-28T04:04:20.602Z,21.70
2019-02-28T04:05:26.775Z,22.70
2019-02-28T04:06:20.589Z,22.90
2019-02-28T04:07:20.582Z,23.70
2019-02-28T04:08:20.580Z,23.60
2019-02-28T04:09:20.572Z,22.60
2019-02-28T04:10:22.044Z,23.60
2019-02-28T04:11:20.562Z,22.90
2019-02-28T04:12:20.556Z,23.80
2019-02-28T04:13:20.554Z,22.80
2019-02-28T04:14:20.541Z,23.10
2019-02-28T04:15:20.546Z,24.10
2019-02-28T04:16:20.531Z,24.00
2019-02-28T04:17:20.521Z,23.60
2019-02-28T04:18:20.516Z,24.10
2019-02-28T04:19:22.643Z,23.30
2019-02-28T04:20:20.503Z,23.40
2019-02-28T04:21:20.497Z,23.10
2019-02-28T04:22:23.019Z,23.70
2019-02-28T04:23:20.486Z,24.30
2019-02-28T04:24:20.480Z,24.60
2019-02-28T04:25:24.131Z,24.00
2019-02-28T04:26:20.468Z,23.70
2019-02-28T04:27:20.463Z,24.20
2019-02-28T04:28:20.454Z,23.70
2019-02-28T04:29:20.446Z,22.40
2019-02-28T04:30:20.443Z,23.70
2019-02-28T04:31:20.460Z,24.20
2019-02-28T04:32:26.355Z,23.60
2019-02-28T04:33:20.423Z,25.10
2019-02-28T04:34:20.419Z,24.60
2019-02-28T04:35:23.928Z,24.20
2019-02-28T04:36:20.405Z,24.60
2019-02-28T04:37:20.399Z,23.70
2019-02-28T04:38:21.389Z,20.70
2019-02-28T04:39:22.843Z,19.90
2019-02-28T04:40:20.380Z,20.60
2019-02-28T04:41:20.374Z,19.60
2019-02-28T04:42:20.368Z,20.60
2019-02-28T04:43:20.361Z,19.60
2019-02-28T04:44:20.355Z,18.50
2019-02-28T04:45:20.350Z,20.40
2019-02-28T04:46:20.347Z,21.20
2019-02-28T04:47:20.336Z,20.90
2019-02-28T04:48:20.330Z,20.60
2019-02-28T04:49:22.665Z,20.60
2019-02-28T04:50:20.318Z,22.20
2019-02-28T04:51:20.311Z,21.40
2019-02-28T04:52:20.306Z,21.40
2019-02-28T04:53:20.303Z,22.30
2019-02-28T04:54:20.294Z,22.60
2019-02-28T04:55:20.286Z,19.50
2019-02-28T04:56:20.281Z,23.30
2019-02-28T04:57:20.760Z,20.40
2019-02-28T04:58:22.343Z,20.80
2019-02-28T04:59:20.262Z,22.00
2019-02-28T05:00:20.266Z,21.40
2019-02-28T05:01:20.252Z,20.70
2019-02-28T05:02:20.699Z,20.80
2019-02-28T05:03:20.256Z,22.10
2019-02-28T05:04:20.231Z,21.00
2019-02-28T05:05:20.226Z,20.60
2019-02-28T05:06:21.186Z,20.20
2019-02-28T05:07:20.212Z,20.70
2019-02-28T05:08:20.206Z,22.10
2019-02-28T05:09:20.200Z,21.10
2019-02-28T05:10:22.364Z,21.60
2019-02-28T05:11:20.188Z,22.20
2019-02-28T05:12:20.191Z,21.40
2019-02-28T05:13:20.175Z,22.20
2019-02-28T05:14:23.374Z,22.10
2019-02-28T05:15:20.163Z,22.40
2019-02-28T05:16:20.157Z,25.60
2019-02-28T05:17:22.294Z,25.70
2019-02-28T05:18:20.146Z,25.90
2019-02-28T05:19:20.138Z,26.90
2019-02-28T05:20:20.130Z,25.20
2019-02-28T05:21:20.271Z,26.30
2019-02-28T05:22:20.118Z,25.80
2019-02-28T05:23:20.114Z,25.90
2019-02-28T05:24:20.106Z,25.70
2019-02-28T05:25:20.099Z,24.10
2019-02-28T05:26:20.093Z,23.80
2019-02-28T05:27:20.086Z,25.50
2019-02-28T05:28:20.085Z,25.40
2019-02-28T05:29:20.074Z,24.70
2019-02-28T05:30:20.067Z,25.60
2019-02-28T05:31:20.061Z,25.60
2019-02-28T05:32:20.058Z,25.00
2019-02-28T05:33:20.054Z,25.90
2019-02-28T05:34:20.045Z,25.50
2019-02-28T05:35:25.580Z,25.80
2019-02-28T05:36:20.031Z,24.70
2019-02-28T05:37:20.024Z,26.40
2019-02-28T05:38:21.117Z,23.90
2019-02-28T05:39:20.016Z,25.50
2019-02-28T05:40:20.010Z,26.30
2019-02-28T05:41:20.005Z,25.70
2019-02-28T05:42:20.261Z,25.30
2019-02-28T05:43:19.985Z,26.50
2019-02-28T05:44:21.378Z,24.50
2019-02-28T05:45:19.974Z,26.60
2019-02-28T05:46:20.354Z,26.50
2019-02-28T05:47:19.960Z,27.20
2019-02-28T05:48:19.954Z,26.90
2019-02-28T05:49:19.947Z,27.00
2019-02-28T05:50:19.941Z,26.20
2019-02-28T05:51:19.934Z,26.60
2019-02-28T05:52:19.931Z,26.50
2019-02-28T05:53:19.926Z,27.10
2019-02-28T05:54:19.916Z,27.30
2019-02-28T05:55:24.247Z,28.10
2019-02-28T05:56:19.902Z,26.20
2019-02-28T05:57:20.146Z,28.70
2019-02-28T07:13:20.677Z,28.80
2019-02-28T07:14:20.672Z,29.50
2019-02-28T07:15:24.090Z,29.60
2019-02-28T07:16:20.658Z,29.40
2019-02-28T07:17:20.652Z,30.70
2019-02-28T07:18:20.646Z,29.80
2019-02-28T07:19:20.648Z,29.50
2019-02-28T07:20:20.634Z,31.10
2019-02-28T07:21:20.630Z,29.00
2019-02-28T07:22:20.730Z,28.00
2019-02-28T07:23:22.197Z,29.20
2019-02-28T07:24:20.608Z,28.70
2019-02-28T07:25:20.600Z,28.60
2019-02-28T07:26:20.598Z,28.90
2019-02-28T07:27:23.358Z,29.40
2019-02-28T07:28:20.582Z,28.30
2019-02-28T07:29:20.576Z,29.70
2019-02-28T07:30:20.569Z,29.30
2019-02-28T07:31:21.626Z,29.20
2019-02-28T07:32:20.556Z,28.90
2019-02-28T07:33:20.550Z,29.90
2019-02-28T07:34:23.784Z,28.30
2019-02-28T07:35:20.538Z,30.00
2019-02-28T07:36:20.532Z,30.30
2019-02-28T07:37:20.525Z,29.50
2019-02-28T07:38:20.521Z,29.90
2019-02-28T07:39:20.514Z,29.20
2019-02-28T07:40:20.507Z,30.20
2019-02-28T07:41:26.124Z,27.80
2019-02-28T07:42:20.497Z,28.50
2019-02-28T07:43:20.491Z,29.90
2019-02-28T07:44:22.237Z,30.40
2019-02-28T07:45:20.475Z,29.30
2019-02-28T07:46:20.472Z,29.60
2019-02-28T07:47:20.464Z,27.70
2019-02-28T07:48:20.460Z,28.00
2019-02-28T07:49:20.450Z,27.00
2019-02-28T07:50:20.444Z,28.80
2019-02-28T07:51:22.324Z,27.70
2019-02-28T07:52:20.511Z,26.20
2019-02-28T07:53:20.426Z,28.90
2019-02-28T07:54:20.594Z,26.10
2019-02-28T07:55:20.415Z,26.80
2019-02-28T07:56:20.408Z,27.10
2019-02-28T07:57:22.360Z,27.10
2019-02-28T07:58:20.398Z,26.60
2019-02-28T07:59:20.403Z,27.00
2019-02-28T08:00:20.390Z,27.70
2019-02-28T08:01:20.378Z,26.60
2019-02-28T08:02:20.373Z,28.20
2019-02-28T08:03:20.369Z,26.80
2019-02-28T08:04:20.360Z,26.30
2019-02-28T08:05:20.359Z,29.30
2019-02-28T08:06:20.349Z,26.20
2019-02-28T08:07:20.351Z,26.60
2019-02-28T08:08:23.495Z,27.10
2019-02-28T08:09:20.332Z,27.50
2019-02-28T08:10:20.326Z,26.90
2019-02-28T08:11:20.823Z,27.30
2019-02-28T08:12:20.318Z,28.10
2019-02-28T08:13:20.309Z,25.90
2019-02-28T08:14:20.304Z,27.10
2019-02-28T08:15:22.237Z,27.70
2019-02-28T08:16:20.294Z,27.40
2019-02-28T08:17:20.286Z,27.70
2019-02-28T08:18:20.284Z,26.70
2019-02-28T08:19:20.285Z,25.90
2019-02-28T08:20:20.269Z,26.10
2019-02-28T08:21:20.265Z,28.30
2019-02-28T08:22:24.357Z,26.40
2019-02-28T08:23:20.254Z,25.50
2019-02-28T08:24:20.249Z,26.80
2019-02-28T08:25:20.251Z,26.00
2019-02-28T08:26:20.239Z,27.40
2019-02-28T08:27:20.232Z,25.80
2019-02-28T08:28:20.225Z,28.20
2019-02-28T08:29:20.230Z,26.00
2019-02-28T08:30:20.656Z,26.40
2019-02-28T08:31:20.209Z,26.00
2019-02-28T08:32:20.203Z,26.90
2019-02-28T08:33:20.198Z,26.30
2019-02-28T08:34:20.715Z,25.70
2019-02-28T08:35:20.188Z,27.30
2019-02-28T08:36:20.182Z,27.10
2019-02-28T08:37:21.881Z,28.70
2019-02-28T08:38:20.172Z,27.50
2019-02-28T08:39:20.167Z,26.20
2019-02-28T08:40:20.163Z,27.20
2019-02-28T08:41:22.590Z,25.90
2019-02-28T08:42:20.152Z,27.10
2019-02-28T08:43:26.815Z,26.80
2019-02-28T08:44:23.806Z,26.00
2019-02-28T08:45:20.138Z,26.50
2019-02-28T08:46:20.133Z,25.70
2019-02-28T08:47:21.151Z,26.40
2019-02-28T08:48:20.124Z,26.20
2019-02-28T08:49:20.119Z,26.90
2019-02-28T08:50:22.670Z,27.30
2019-02-28T08:51:20.114Z,25.90
2019-02-28T08:52:20.103Z,27.50
2019-02-28T08:53:20.099Z,25.60
2019-02-28T08:54:26.121Z,26.60
2019-02-28T08:55:28.262Z,25.50
2019-02-28T08:56:20.085Z,26.00
2019-02-28T08:57:22.044Z,25.90
2019-02-28T08:58:20.074Z,25.90
2019-02-28T08:59:22.516Z,26.60
2019-02-28T09:00:20.067Z,27.10
2019-02-28T09:01:20.061Z,26.30
2019-02-28T09:02:20.058Z,26.10
2019-02-28T09:03:20.053Z,25.50
2019-02-28T09:04:20.047Z,26.30
2019-02-28T09:05:25.675Z,25.30
2019-02-28T09:06:20.039Z,25.50
2019-02-28T09:07:20.035Z,25.60
2019-02-28T09:08:22.410Z,25.80
2019-02-28T09:09:20.025Z,27.60
2019-02-28T09:10:20.022Z,27.30
2019-02-28T09:11:21.117Z,25.40
2019-02-28T09:12:20.013Z,26.80
2019-02-28T09:13:20.010Z,25.80
2019-02-28T09:14:20.005Z,27.90
2019-02-28T09:15:20.000Z,26.60
2019-02-28T09:16:19.996Z,26.00
2019-02-28T09:17:19.993Z,27.30
2019-02-28T09:18:19.988Z,27.80
2019-02-28T09:19:19.986Z,26.50
2019-02-28T09:20:19.980Z,27.50
2019-02-28T09:21:19.978Z,25.50
2019-02-28T09:22:19.973Z,26.80
2019-02-28T09:23:19.968Z,26.70
2019-02-28T09:24:19.963Z,27.40
2019-02-28T09:25:22.100Z,27.40
2019-02-28T09:26:19.956Z,28.00
2019-02-28T09:27:19.953Z,25.40
2019-02-28T09:28:20.900Z,27.70
2019-02-28T09:29:21.294Z,27.20
2019-02-28T09:30:19.960Z,26.30
2019-02-28T09:31:19.937Z,27.30
2019-02-28T09:32:19.932Z,27.00
2019-02-28T09:33:23.228Z,27.30
2019-02-28T09:34:19.931Z,25.90
2019-02-28T09:35:19.926Z,27.60
2019-02-28T09:36:20.832Z,27.20
2019-02-28T09:37:19.915Z,26.10
2019-02-28T09:38:19.912Z,26.40
2019-02-28T09:39:20.298Z,28.90
2019-02-28T09:40:19.905Z,27.40
2019-02-28T09:41:19.902Z,26.20
2019-02-28T09:42:19.898Z,27.10
2019-02-28T09:43:19.896Z,26.80
2019-02-28T09:44:19.893Z,27.30
2019-02-28T09:45:19.888Z,27.90
2019-02-28T09:46:19.886Z,26.70
2019-02-28T09:47:19.885Z,26.40
2019-02-28T09:48:19.880Z,26.60
2019-02-28T09:49:19.878Z,25.50
2019-02-28T09:50:22.458Z,27.00
2019-02-28T09:51:19.874Z,25.60
2019-02-28T09:52:19.871Z,26.50
2019-02-28T09:53:19.870Z,26.90
2019-02-28T09:54:21.356Z,26.00
2019-02-28T09:55:19.866Z,27.50
2019-02-28T09:56:19.865Z,26.80
2019-02-28T09:57:19.905Z,25.70
2019-02-28T09:58:19.862Z,26.70
2019-02-28T09:59:19.866Z,26.30
2019-02-28T10:00:19.862Z,25.90
2019-02-28T10:01:21.263Z,25.60
2019-02-28T10:02:19.861Z,24.40
2019-02-28T10:03:19.872Z,26.10
2019-02-28T10:04:19.858Z,27.20
2019-02-28T10:05:19.860Z,27.60
2019-02-28T10:06:19.860Z,27.60
2019-02-28T10:07:19.860Z,26.50
2019-02-28T10:08:21.663Z,28.30
2019-02-28T10:09:19.860Z,25.10
2019-02-28T10:10:21.022Z,26.80
2019-02-28T10:11:21.719Z,25.10
2019-02-28T10:12:19.864Z,25.60
2019-02-28T10:13:19.861Z,24.80
2019-02-28T10:14:19.865Z,26.20
2019-02-28T10:15:19.877Z,26.40
2019-02-28T10:16:19.867Z,25.30
2019-02-28T10:17:19.868Z,26.80
2019-02-28T10:18:19.868Z,25.70
2019-02-28T10:19:19.871Z,26.50
2019-02-28T10:20:19.871Z,27.90
2019-02-28T10:21:19.873Z,27.50
2019-02-28T10:22:19.875Z,26.90
2019-02-28T10:23:21.465Z,26.60
2019-02-28T10:24:19.879Z,25.60
2019-02-28T10:25:19.882Z,25.00
2019-02-28T10:26:19.884Z,27.30
2019-02-28T10:27:19.891Z,25.90
2019-02-28T10:28:19.888Z,28.10
2019-02-28T10:29:19.892Z,28.30
2019-02-28T10:30:30.708Z,25.00
2019-02-28T10:31:22.878Z,25.90
2019-02-28T10:32:19.899Z,25.60
2019-02-28T10:33:19.904Z,25.10
2019-02-28T10:34:19.907Z,28.20
2019-02-28T10:35:19.910Z,27.00
2019-02-28T10:36:19.910Z,26.70
2019-02-28T10:37:22.846Z,27.60
2019-02-28T10:38:19.917Z,27.00
2019-02-28T10:39:19.918Z,25.30
2019-02-28T10:40:19.921Z,26.00
2019-02-28T10:41:19.924Z,26.10
2019-02-28T10:42:19.927Z,26.50
2019-02-28T10:43:19.934Z,26.80
2019-02-28T10:44:19.932Z,26.60
2019-02-28T10:45:19.935Z,26.10
2019-02-28T10:46:20.285Z,26.90
2019-02-28T10:47:19.940Z,27.70
2019-02-28T10:48:19.940Z,27.10
2019-02-28T10:49:21.080Z,26.90
2019-02-28T10:50:19.946Z,25.10
2019-02-28T10:51:19.948Z,25.40
2019-02-28T10:52:19.952Z,27.10
2019-02-28T10:53:19.951Z,26.20
2019-02-28T10:54:19.954Z,26.90
2019-02-28T10:55:22.566Z,25.70
2019-02-28T10:56:19.956Z,25.40
2019-02-28T10:57:19.958Z,27.90
2019-02-28T10:58:19.960Z,27.80
2019-02-28T10:59:21.354Z,27.90
2019-02-28T11:00:20.181Z,26.90
2019-02-28T11:01:19.967Z,27.80
2019-02-28T11:02:20.031Z,25.30
2019-02-28T11:03:19.966Z,27.50
2019-02-28T11:04:19.967Z,27.20
2019-02-28T11:05:19.968Z,28.30
2019-02-28T11:06:19.973Z,27.90
2019-02-28T11:07:19.971Z,27.20
2019-02-28T11:08:19.972Z,28.30
2019-02-28T11:09:21.412Z,27.10
2019-02-28T11:10:19.973Z,25.90
2019-02-28T11:11:19.975Z,27.50
2019-02-28T11:12:21.739Z,26.60
2019-02-28T11:13:19.979Z,27.30
2019-02-28T11:14:19.977Z,26.60
2019-02-28T11:15:19.977Z,27.60
2019-02-28T11:16:20.438Z,29.20
2019-02-28T11:17:19.979Z,26.80
2019-02-28T11:18:19.982Z,27.50
2019-02-28T11:19:19.980Z,27.70
2019-02-28T11:20:22.288Z,26.60
2019-02-28T11:21:19.981Z,27.50
2019-02-28T11:22:19.981Z,28.40
2019-02-28T11:23:19.984Z,28.50
2019-02-28T11:24:20.613Z,30.80
2019-02-28T11:25:19.983Z,30.30
2019-02-28T11:26:19.984Z,29.50
2019-02-28T11:27:22.840Z,27.70
2019-02-28T11:28:19.983Z,29.70
2019-02-28T11:29:19.989Z,28.70
2019-02-28T11:30:19.987Z,28.00
2019-02-28T11:31:20.082Z,28.30
2019-02-28T11:32:19.986Z,28.00
2019-02-28T11:33:19.987Z,28.30
2019-02-28T11:34:19.987Z,28.10
2019-02-28T11:35:20.090Z,27.30
2019-02-28T11:36:19.987Z,28.60
2019-02-28T11:37:19.988Z,30.10
2019-02-28T11:38:21.551Z,28.10
2019-02-28T11:39:19.988Z,27.30
2019-02-28T11:40:19.986Z,28.50
2019-02-28T11:41:19.986Z,28.10
2019-02-28T11:42:19.988Z,28.30
2019-02-28T11:43:19.988Z,27.40
2019-02-28T11:44:19.985Z,29.30
2019-02-28T11:45:22.021Z,28.80
2019-02-28T11:46:19.985Z,29.30
2019-02-28T11:47:19.984Z,28.60
2019-02-28T11:48:20.500Z,28.50
2019-02-28T11:49:19.983Z,29.20
2019-02-28T11:50:19.982Z,30.00
2019-02-28T11:51:19.983Z,29.70
2019-02-28T11:52:19.980Z,30.70
2019-02-28T11:53:19.980Z,30.00
2019-02-28T11:54:19.980Z,29.30
2019-02-28T11:55:20.402Z,29.60
2019-02-28T11:56:20.011Z,29.80
2019-02-28T11:57:20.625Z,29.30
2019-02-28T11:58:19.976Z,30.40
2019-02-28T11:59:19.986Z,31.00
2019-02-28T12:00:19.974Z,29.50
2019-02-28T12:01:19.972Z,29.90
2019-02-28T12:02:20.582Z,29.30
2019-02-28T12:03:19.979Z,29.10
2019-02-28T12:04:19.967Z,30.60
2019-02-28T12:05:19.968Z,29.90
2019-02-28T12:06:22.366Z,29.10
2019-02-28T12:07:19.965Z,29.00
2019-02-28T12:08:19.965Z,29.40
2019-02-28T12:09:20.090Z,31.10
2019-02-28T12:10:19.961Z,29.60
2019-02-28T12:11:19.960Z,30.70
2019-02-28T12:12:19.958Z,30.80
2019-02-28T12:13:20.574Z,29.10
2019-02-28T12:14:19.955Z,30.40
2019-02-28T12:15:19.954Z,30.10
2019-02-28T12:16:20.266Z,30.70
2019-02-28T12:17:19.952Z,30.70
2019-02-28T12:18:19.953Z,30.00
2019-02-28T12:19:19.948Z,33.20
2019-02-28T12:20:25.925Z,30.90
2019-02-28T12:21:19.946Z,29.90
2019-02-28T12:22:19.945Z,30.60
2019-02-28T12:23:22.916Z,30.20
2019-02-28T12:24:19.940Z,28.10
2019-02-28T12:25:19.941Z,29.40
2019-02-28T12:26:21.078Z,30.40
2019-02-28T12:27:19.936Z,28.70
2019-02-28T12:28:19.935Z,27.80
2019-02-28T12:29:19.934Z,29.50
2019-02-28T12:30:21.950Z,29.60
2019-02-28T12:31:19.932Z,29.40
2019-02-28T12:32:19.933Z,28.30
2019-02-28T12:33:23.140Z,30.70
2019-02-28T12:34:19.927Z,30.80
2019-02-28T12:35:19.926Z,29.30
2019-02-28T12:36:19.924Z,29.30
2019-02-28T12:37:22.093Z,29.80
2019-02-28T12:38:19.921Z,28.80
2019-02-28T12:39:19.920Z,29.60
2019-02-28T12:40:19.916Z,30.60
2019-02-28T12:41:21.731Z,29.40
2019-02-28T12:42:19.914Z,30.00
2019-02-28T12:43:19.914Z,29.00
2019-02-28T12:44:19.911Z,28.90
2019-02-28T12:45:21.263Z,30.60
2019-02-28T12:46:19.910Z,27.60
2019-02-28T12:47:19.909Z,29.80
2019-02-28T12:48:19.905Z,29.40
2019-02-28T12:49:22.398Z,30.00
2019-02-28T12:50:19.904Z,30.40
2019-02-28T12:51:19.902Z,28.70
2019-02-28T12:52:19.900Z,28.30
2019-02-28T12:53:24.118Z,29.60
2019-02-28T12:54:19.901Z,29.10
2019-02-28T12:55:19.898Z,28.20
2019-02-28T12:56:19.896Z,29.50
2019-02-28T12:57:22.329Z,26.40
2019-02-28T12:58:19.893Z,27.50
2019-02-28T12:59:19.891Z,26.40
2019-02-28T13:00:23.118Z,29.80
2019-02-28T13:01:19.889Z,29.30
2019-02-28T13:02:19.888Z,30.80
2019-02-28T13:03:21.095Z,29.70
2019-02-28T13:04:19.884Z,29.20
2019-02-28T13:05:19.883Z,28.50
2019-02-28T13:06:23.442Z,29.50
2019-02-28T13:07:19.880Z,27.50
2019-02-28T13:08:19.878Z,28.60
2019-02-28T13:09:19.877Z,29.30
2019-02-28T13:10:19.875Z,30.00
2019-02-28T13:11:19.878Z,29.90
2019-02-28T13:12:19.874Z,30.00
2019-02-28T13:13:21.584Z,28.50
2019-02-28T13:14:19.874Z,27.70
2019-02-28T13:15:19.871Z,27.80
2019-02-28T13:16:20.769Z,29.10
2019-02-28T13:17:19.867Z,27.40
2019-02-28T13:18:19.864Z,27.70
2019-02-28T13:19:20.134Z,27.90
2019-02-28T13:20:19.862Z,27.30
2019-02-28T13:21:19.860Z,28.90
2019-02-28T13:22:23.323Z,26.80
2019-02-28T13:23:19.857Z,27.90
2019-02-28T13:24:19.862Z,28.50
2019-02-28T13:25:23.599Z,27.40
2019-02-28T13:26:19.855Z,28.10
2019-02-28T13:27:19.852Z,26.40
2019-02-28T13:28:22.100Z,28.20
2019-02-28T13:29:22.029Z,27.80
2019-02-28T13:30:19.846Z,27.10
2019-02-28T13:31:19.847Z,27.40
2019-02-28T13:32:19.843Z,26.80
2019-02-28T13:33:19.850Z,28.30
2019-02-28T13:34:19.847Z,27.90
2019-02-28T13:35:19.919Z,28.00
2019-02-28T13:36:21.631Z,26.90
2019-02-28T13:37:19.835Z,27.60
2019-02-28T13:38:20.023Z,26.40
2019-02-28T13:39:19.833Z,26.10
2019-02-28T13:40:21.977Z,26.70
2019-02-28T13:41:22.106Z,26.60
2019-02-28T13:42:19.830Z,27.30
2019-02-28T13:43:22.408Z,27.80
2019-02-28T13:44:19.824Z,26.70
2019-02-28T13:45:23.126Z,27.50
2019-02-28T13:46:19.824Z,26.70
2019-02-28T13:47:19.822Z,27.40
2019-02-28T13:48:25.957Z,29.30
2019-02-28T13:49:19.817Z,27.00
2019-02-28T13:50:22.029Z,25.90
2019-02-28T13:51:19.816Z,24.60
2019-02-28T13:52:20.847Z,25.10
2019-02-28T13:53:19.810Z,26.90
2019-02-28T13:54:19.810Z,26.90
2019-02-28T13:55:20.167Z,27.50
2019-02-28T13:56:19.808Z,26.80
2019-02-28T13:57:19.806Z,26.20
2019-02-28T13:58:21.611Z,27.80
2019-02-28T13:59:19.805Z,26.00
2019-02-28T14:00:19.801Z,26.80
2019-02-28T14:01:20.355Z,25.60
2019-02-28T14:02:19.800Z,26.50
2019-02-28T14:03:19.798Z,25.20
2019-02-28T14:04:25.991Z,25.70
2019-02-28T14:05:19.793Z,26.50
2019-02-28T14:06:20.014Z,24.70
2019-02-28T14:07:19.798Z,26.50